createdAt,value
2018-07-07T00:00:44.053Z,12.7
2018-07-07T00:01:44.093Z,12.7
2018-07-07T00:02:44.123Z,12.6
2018-07-07T00:03:44.051Z,12.6
2018-07-07T00:04:44.131Z,12.6
2018-07-07T00:05:44.081Z,12.6
2018-07-07T00:06:44.163Z,12.6
2018-07-07T00:07:44.052Z,12.4
2018-07-07T00:08:44.106Z,12.4
2018-07-07T00:09:44.726Z,12.3
2018-07-07T00:10:44.090Z,12.3
2018-07-07T00:11:44.198Z,12.3
2018-07-07T00:12:44.020Z,12.2
2018-07-07T00:13:44.009Z,12.2
2018-07-07T00:14:44.144Z,12.0
2018-07-07T00:15:44.111Z,12.0
2018-07-07T00:16:44.035Z,12.0
2018-07-07T00:17:44.215Z,12.1
2018-07-07T00:18:44.101Z,12.1
2018-07-07T00:30:31.674Z,12.3
2018-07-07T00:30:39.792Z,12.3
2018-07-07T00:31:39.927Z,12.3
2018-07-07T00:32:39.773Z,12.2
2018-07-07T00:33:39.899Z,12.2
2018-07-07T00:34:39.789Z,12.2
2018-07-07T00:35:39.774Z,12.0
2018-07-07T00:36:39.829Z,12.0
2018-07-07T00:37:39.780Z,12.0
2018-07-07T00:38:39.747Z,12.0
2018-07-07T00:39:39.827Z,12.0
2018-07-07T00:40:39.884Z,11.9
2018-07-07T00:41:39.757Z,11.9
2018-07-07T00:42:39.791Z,11.8
2018-07-07T00:43:39.706Z,11.8
2018-07-07T00:44:39.765Z,11.8
2018-07-07T00:45:39.815Z,11.8
2018-07-07T00:46:39.883Z,11.8
2018-07-07T00:47:39.751Z,11.8
2018-07-07T00:48:39.708Z,11.8
2018-07-07T00:49:39.786Z,11.8
2018-07-07T00:50:39.807Z,11.8
2018-07-07T00:51:39.854Z,11.8
2018-07-07T00:52:39.861Z,11.7
2018-07-07T00:53:39.851Z,11.7
2018-07-07T00:54:39.927Z,11.7
2018-07-07T00:55:39.962Z,11.6
2018-07-07T00:56:39.916Z,11.6
2018-07-07T00:57:39.884Z,11.6
2018-07-07T00:58:40.411Z,11.6
2018-07-07T00:59:39.865Z,11.6
2018-07-07T01:00:39.913Z,11.6
2018-07-07T01:01:39.901Z,11.6
2018-07-07T01:02:39.866Z,11.6
2018-07-07T01:03:40.483Z,11.6
2018-07-07T01:04:39.816Z,11.6
2018-07-07T01:05:39.832Z,11.7
2018-07-07T01:06:40.024Z,11.7
2018-07-07T01:07:39.867Z,11.7
2018-07-07T01:08:39.953Z,11.7
2018-07-07T01:09:39.868Z,11.7
2018-07-07T01:10:42.104Z,11.7
2018-07-07T01:11:39.738Z,11.7
2018-07-07T01:12:39.791Z,11.7
2018-07-07T01:13:39.747Z,11.7
2018-07-07T01:14:44.039Z,11.7
2018-07-07T01:15:39.805Z,11.6
2018-07-07T01:16:39.738Z,11.6
2018-07-07T01:17:39.916Z,11.6
2018-07-07T01:18:39.780Z,11.7
2018-07-07T01:19:39.815Z,11.7
2018-07-07T01:21:08.314Z,11.8
2018-07-07T01:21:39.774Z,11.8
2018-07-07T01:22:39.781Z,11.8
2018-07-07T01:23:39.781Z,11.9
2018-07-07T01:24:39.730Z,11.9
2018-07-07T01:25:39.891Z,11.9
2018-07-07T01:26:39.974Z,11.9
2018-07-07T01:27:40.416Z,11.9
2018-07-07T01:28:39.830Z,11.9
2018-07-07T01:29:39.941Z,11.9
2018-07-07T01:30:39.760Z,11.9
2018-07-07T01:32:52.044Z,11.9
2018-07-07T01:33:52.192Z,11.9
2018-07-07T01:34:52.086Z,11.9
2018-07-07T01:35:52.250Z,11.9
2018-07-07T01:36:52.085Z,11.9
2018-07-07T01:37:52.258Z,11.9
2018-07-07T01:38:52.185Z,11.8
2018-07-07T01:39:52.146Z,11.8
2018-07-07T01:40:52.161Z,11.8
2018-07-07T01:41:52.191Z,11.8
2018-07-07T01:43:08.252Z,11.8
2018-07-07T01:43:52.058Z,11.8
2018-07-07T01:44:52.081Z,11.8
2018-07-07T01:45:52.085Z,11.8
2018-07-07T01:46:52.148Z,11.8
2018-07-07T01:47:52.065Z,11.8
2018-07-07T01:48:52.127Z,11.8
2018-07-07T01:49:52.157Z,11.8
2018-07-07T01:50:52.182Z,11.8
2018-07-07T01:51:52.115Z,11.8
2018-07-07T01:52:52.782Z,11.8
2018-07-07T01:53:52.199Z,11.8
2018-07-07T01:54:52.304Z,11.8
2018-07-07T01:55:52.146Z,11.8
2018-07-07T01:56:52.144Z,11.8
2018-07-07T01:57:52.134Z,11.8
2018-07-07T01:58:52.251Z,11.7
2018-07-07T01:59:52.119Z,11.7
2018-07-07T02:00:52.195Z,11.7
2018-07-07T02:01:52.172Z,11.6
2018-07-07T02:03:05.944Z,11.6
2018-07-07T02:03:52.197Z,11.6
2018-07-07T02:04:52.174Z,11.6
2018-07-07T02:05:52.123Z,11.6
2018-07-07T02:06:52.235Z,11.6
2018-07-07T02:07:52.209Z,11.6
2018-07-07T02:08:52.223Z,11.8
2018-07-07T02:09:52.122Z,11.8
2018-07-07T02:10:52.177Z,11.8
2018-07-07T02:11:52.128Z,11.9
2018-07-07T02:12:52.172Z,11.9
2018-07-07T02:15:05.527Z,11.9
2018-07-07T02:16:05.530Z,11.9
2018-07-07T02:17:05.574Z,11.8
2018-07-07T02:18:05.520Z,11.8
2018-07-07T02:19:05.474Z,11.6
2018-07-07T02:20:05.546Z,11.6
2018-07-07T02:21:05.591Z,11.6
2018-07-07T02:22:05.511Z,11.6
2018-07-07T02:23:05.559Z,11.6
2018-07-07T02:24:05.480Z,11.6
2018-07-07T02:36:09.415Z,11.5
2018-07-07T02:37:09.380Z,11.4
2018-07-07T02:38:09.517Z,11.4
2018-07-07T02:39:09.584Z,11.4
2018-07-07T02:40:09.421Z,11.3
2018-07-07T02:41:09.402Z,11.3
2018-07-07T02:42:09.396Z,11.2
2018-07-07T02:43:09.381Z,11.2
2018-07-07T02:44:09.446Z,11.2
2018-07-07T02:45:09.415Z,11.2
2018-07-07T02:51:04.632Z,11.2
2018-07-07T02:51:12.614Z,11.2
2018-07-07T02:52:12.644Z,11.2
2018-07-07T02:53:12.650Z,11.2
2018-07-07T02:54:12.626Z,11.2
2018-07-07T02:55:12.672Z,11.1
2018-07-07T02:56:12.655Z,11.1
2018-07-07T02:57:12.679Z,11.0
2018-07-07T02:58:12.598Z,11.0
2018-07-07T02:59:12.653Z,11.0
2018-07-07T03:00:16.245Z,10.9
2018-07-07T03:01:12.629Z,10.9
2018-07-07T03:02:12.632Z,10.9
2018-07-07T03:03:12.741Z,10.9
2018-07-07T03:04:12.610Z,10.9
2018-07-07T03:05:12.702Z,11.0
2018-07-07T03:06:12.710Z,11.0
2018-07-07T03:07:12.628Z,11.0
2018-07-07T03:08:12.649Z,11.0
2018-07-07T03:09:12.604Z,11.0
2018-07-07T03:10:13.664Z,10.9
2018-07-07T03:11:12.645Z,10.9
2018-07-07T03:12:12.632Z,10.9
2018-07-07T03:13:12.643Z,10.8
2018-07-07T03:14:12.647Z,10.8
2018-07-07T03:15:12.728Z,10.8
2018-07-07T03:16:12.856Z,10.8
2018-07-07T03:17:12.615Z,10.8
2018-07-07T03:18:12.623Z,10.6
2018-07-07T03:19:12.636Z,10.6
2018-07-07T03:20:13.401Z,10.5
2018-07-07T03:21:12.582Z,10.5
2018-07-07T03:22:12.679Z,10.5
2018-07-07T03:23:12.660Z,10.4
2018-07-07T03:24:12.612Z,10.4
2018-07-07T03:25:12.662Z,10.4
2018-07-07T03:26:12.644Z,10.4
2018-07-07T03:27:33.430Z,10.4
2018-07-07T03:28:12.685Z,10.4
2018-07-07T03:29:12.788Z,10.4
2018-07-07T03:30:13.310Z,10.4
2018-07-07T03:31:12.713Z,10.4
2018-07-07T03:32:12.924Z,10.4
2018-07-07T03:33:13.111Z,10.5
2018-07-07T03:34:12.667Z,10.5
2018-07-07T03:35:12.672Z,10.5
2018-07-07T03:36:12.739Z,10.6
2018-07-07T03:37:12.710Z,10.6
2018-07-07T03:38:12.991Z,10.8
2018-07-07T03:39:21.281Z,10.8
2018-07-07T03:40:51.548Z,10.8
2018-07-07T03:41:12.837Z,10.6
2018-07-07T03:42:13.237Z,10.6
2018-07-07T03:43:12.688Z,10.6
2018-07-07T03:44:12.786Z,10.6
2018-07-07T03:45:12.714Z,10.6
2018-07-07T03:46:12.703Z,10.6
2018-07-07T03:47:12.795Z,10.6
2018-07-07T03:48:13.393Z,10.3
2018-07-07T03:49:12.764Z,10.3
2018-07-07T03:50:12.740Z,10.3
2018-07-07T03:51:12.784Z,10.3
2018-07-07T03:52:12.742Z,10.3
2018-07-07T03:53:12.932Z,10.5
2018-07-07T03:54:12.704Z,10.5
2018-07-07T03:55:12.730Z,10.5
2018-07-07T03:56:12.719Z,10.7
2018-07-07T03:57:12.703Z,10.7
2018-07-07T03:58:12.695Z,10.7
2018-07-07T03:59:14.890Z,10.7
2018-07-07T04:00:12.697Z,10.7
2018-07-07T04:01:12.793Z,10.7
2018-07-07T04:02:12.746Z,10.7
2018-07-07T04:03:12.695Z,10.7
2018-07-07T04:04:12.696Z,10.7
2018-07-07T04:05:12.751Z,10.7
2018-07-07T04:06:12.767Z,10.8
2018-07-07T04:07:12.906Z,10.8
2018-07-07T04:08:12.844Z,10.8
2018-07-07T04:09:13.846Z,10.8
2018-07-07T04:10:12.825Z,10.8
2018-07-07T04:11:12.785Z,10.9
2018-07-07T04:12:12.757Z,10.9
2018-07-07T04:13:12.893Z,10.9
2018-07-07T04:14:23.311Z,10.8
2018-07-07T04:15:21.987Z,10.8
2018-07-07T04:16:24.472Z,10.8
2018-07-07T04:17:13.480Z,10.8
2018-07-07T04:18:12.742Z,10.8
2018-07-07T04:19:12.807Z,10.7
2018-07-07T04:20:12.910Z,10.7
2018-07-07T04:21:12.786Z,10.6
2018-07-07T04:22:12.943Z,10.6
2018-07-07T04:23:12.814Z,10.6
2018-07-07T04:24:12.848Z,10.6
2018-07-07T04:25:12.802Z,10.6
2018-07-07T04:26:12.754Z,10.6
2018-07-07T04:27:12.856Z,10.6
2018-07-07T04:28:12.792Z,10.6
2018-07-07T04:29:12.825Z,10.7
2018-07-07T04:30:12.927Z,10.7
2018-07-07T04:31:12.800Z,10.8
2018-07-07T04:32:12.798Z,10.8
2018-07-07T04:33:12.851Z,10.8
2018-07-07T04:34:12.806Z,10.8
2018-07-07T04:35:13.190Z,10.8
2018-07-07T04:36:12.756Z,10.8
2018-07-07T04:37:12.787Z,10.9
2018-07-07T04:38:13.696Z,10.9
2018-07-07T04:39:13.053Z,11.0
2018-07-07T04:40:12.743Z,11.0
2018-07-07T04:41:12.798Z,11.0
2018-07-07T04:42:12.875Z,11.2
2018-07-07T04:43:12.807Z,11.2
2018-07-07T04:44:12.708Z,11.5
2018-07-07T04:45:12.735Z,11.5
2018-07-07T04:46:12.739Z,11.5
2018-07-07T04:47:12.825Z,11.8
2018-07-07T04:48:12.827Z,11.8
2018-07-07T04:49:12.764Z,11.8
2018-07-07T04:50:12.809Z,11.8
2018-07-07T04:51:13.455Z,11.8
2018-07-07T04:52:12.774Z,12.3
2018-07-07T04:53:12.951Z,12.3
2018-07-07T04:54:12.763Z,12.4
2018-07-07T04:55:12.807Z,12.4
2018-07-07T04:56:12.778Z,12.4
2018-07-07T04:57:12.805Z,12.4
2018-07-07T04:58:13.489Z,12.4
2018-07-07T04:59:12.867Z,12.3
2018-07-07T05:00:12.823Z,12.3
2018-07-07T05:01:12.922Z,12.3
2018-07-07T05:02:12.937Z,12.4
2018-07-07T05:03:12.834Z,12.4
2018-07-07T05:04:12.930Z,12.4
2018-07-07T05:05:12.897Z,12.4
2018-07-07T05:06:12.941Z,12.4
2018-07-07T05:07:13.057Z,12.4
2018-07-07T05:08:12.941Z,12.4
2018-07-07T05:09:12.910Z,12.4
2018-07-07T05:10:12.994Z,12.5
2018-07-07T05:11:12.837Z,12.5
2018-07-07T05:12:12.902Z,12.6
2018-07-07T05:13:12.972Z,12.6
2018-07-07T05:14:12.953Z,12.6
2018-07-07T05:15:12.937Z,12.6
2018-07-07T05:16:12.929Z,12.6
2018-07-07T05:17:13.040Z,12.7
2018-07-07T05:18:14.012Z,12.7
2018-07-07T05:19:12.975Z,12.7
2018-07-07T05:21:13.630Z,12.8
2018-07-07T05:23:12.959Z,13.0
2018-07-07T05:24:12.896Z,13.0
2018-07-07T05:25:12.823Z,12.9
2018-07-07T05:26:12.888Z,12.9
2018-07-07T05:27:13.920Z,13.0
2018-07-07T05:28:12.864Z,13.0
2018-07-07T05:29:13.080Z,13.0
2018-07-07T05:30:12.905Z,13.0
2018-07-07T05:31:12.849Z,13.0
2018-07-07T05:32:12.903Z,13.0
2018-07-07T05:33:13.037Z,13.0
2018-07-07T05:34:12.923Z,13.0
2018-07-07T05:35:12.975Z,13.0
2018-07-07T05:36:13.146Z,13.0
2018-07-07T05:37:13.582Z,13.0
2018-07-07T05:38:13.105Z,13.4
2018-07-07T05:39:13.061Z,13.4
2018-07-07T05:40:13.046Z,14.1
2018-07-07T05:41:12.913Z,14.1
2018-07-07T05:42:13.591Z,14.1
2018-07-07T05:43:12.910Z,14.6
2018-07-07T05:44:13.241Z,14.6
2018-07-07T05:45:12.969Z,15.0
2018-07-07T05:46:13.051Z,15.0
2018-07-07T05:47:13.038Z,15.0
2018-07-07T05:48:13.106Z,14.9
2018-07-07T05:49:13.030Z,14.9
2018-07-07T05:50:13.879Z,15.1
2018-07-07T05:51:12.969Z,15.1
2018-07-07T05:52:12.978Z,15.1
2018-07-07T05:53:13.097Z,15.2
2018-07-07T05:54:13.027Z,15.2
2018-07-07T05:55:12.997Z,14.6
2018-07-07T05:56:13.034Z,14.6
2018-07-07T05:57:12.979Z,14.6
2018-07-07T05:58:12.977Z,14.4
2018-07-07T05:59:13.047Z,14.4
2018-07-07T06:00:13.008Z,14.4
2018-07-07T06:01:13.059Z,14.4
2018-07-07T06:02:12.965Z,14.4
2018-07-07T06:03:12.952Z,14.5
2018-07-07T06:04:13.000Z,14.5
2018-07-07T06:05:12.904Z,14.7
2018-07-07T06:06:12.936Z,14.7
2018-07-07T06:07:12.996Z,14.7
2018-07-07T06:08:13.315Z,14.8
2018-07-07T06:09:13.051Z,14.8
2018-07-07T06:10:13.129Z,14.8
2018-07-07T06:11:13.031Z,14.8
2018-07-07T06:12:12.980Z,14.8
2018-07-07T06:13:13.028Z,14.8
2018-07-07T06:14:13.009Z,14.8
2018-07-07T06:15:13.752Z,14.8
2018-07-07T06:16:13.185Z,14.7
2018-07-07T06:17:13.007Z,14.7
2018-07-07T06:18:13.105Z,14.8
2018-07-07T06:19:13.096Z,14.8
2018-07-07T06:20:12.983Z,14.8
2018-07-07T06:21:13.231Z,15.3
2018-07-07T06:22:13.099Z,15.3
2018-07-07T06:23:13.030Z,15.3
2018-07-07T06:24:13.065Z,15.3
2018-07-07T06:25:15.172Z,15.3
2018-07-07T06:26:12.996Z,15.7
2018-07-07T06:27:13.001Z,15.7
2018-07-07T06:28:13.074Z,15.8
2018-07-07T06:29:13.103Z,15.8
2018-07-07T06:30:12.962Z,15.8
2018-07-07T06:31:13.020Z,16.0
2018-07-07T06:32:14.524Z,16.0
2018-07-07T06:33:13.132Z,16.4
2018-07-07T06:34:13.120Z,16.4
2018-07-07T06:35:13.133Z,16.4
2018-07-07T06:36:13.973Z,16.4
2018-07-07T06:37:13.213Z,16.4
2018-07-07T06:38:13.601Z,16.4
2018-07-07T06:39:13.106Z,16.5
2018-07-07T06:40:13.058Z,16.5
2018-07-07T06:41:13.072Z,17.1
2018-07-07T06:42:13.302Z,17.1
2018-07-07T06:43:13.077Z,17.1
2018-07-07T06:44:13.178Z,17.2
2018-07-07T06:45:13.160Z,17.2
2018-07-07T06:46:13.172Z,17.3
2018-07-07T06:47:13.197Z,17.3
2018-07-07T06:48:13.460Z,17.3
2018-07-07T06:49:13.252Z,17.6
2018-07-07T06:50:13.213Z,17.6
2018-07-07T06:51:13.148Z,17.6
2018-07-07T06:52:15.249Z,17.6
2018-07-07T06:53:13.177Z,17.6
2018-07-07T06:54:13.166Z,17.9
2018-07-07T06:55:13.144Z,17.9
2018-07-07T06:56:13.152Z,18.3
2018-07-07T06:57:13.215Z,18.3
2018-07-07T06:58:13.314Z,18.3
2018-07-07T06:59:13.220Z,19.0
2018-07-07T07:00:13.255Z,19.0
2018-07-07T07:01:13.247Z,19.2
2018-07-07T07:07:06.951Z,19.2
2018-07-07T07:07:20.269Z,19.2
2018-07-07T07:08:21.132Z,19.2
2018-07-07T07:09:21.208Z,19.8
2018-07-07T07:10:21.148Z,19.8
2018-07-07T07:11:21.262Z,20.0
2018-07-07T07:12:21.202Z,20.0
2018-07-07T07:13:21.137Z,20.0
2018-07-07T07:14:21.257Z,20.5
2018-07-07T07:15:21.159Z,20.5
2018-07-07T07:16:21.153Z,20.5
2018-07-07T07:17:21.238Z,20.0
2018-07-07T07:18:21.157Z,20.0
2018-07-07T07:19:21.187Z,19.8
2018-07-07T07:20:21.230Z,19.8
2018-07-07T07:21:21.211Z,19.8
2018-07-07T07:22:21.110Z,20.4
2018-07-07T07:23:21.179Z,20.4
2018-07-07T07:24:21.182Z,20.8
2018-07-07T07:25:21.817Z,20.8
2018-07-07T07:26:21.315Z,20.8
2018-07-07T07:27:21.212Z,20.8
2018-07-07T07:28:21.278Z,20.8
2018-07-07T07:29:21.535Z,21.0
2018-07-07T07:30:21.305Z,21.0
2018-07-07T07:31:21.409Z,21.0
2018-07-07T07:32:22.361Z,21.0
2018-07-07T07:33:21.255Z,21.0
2018-07-07T07:34:21.388Z,21.4
2018-07-07T07:35:21.737Z,21.4
2018-07-07T07:36:21.173Z,21.4
2018-07-07T07:37:21.254Z,21.6
2018-07-07T07:38:21.309Z,21.6
2018-07-07T07:39:21.268Z,21.9
2018-07-07T07:40:21.408Z,21.9
2018-07-07T07:41:21.384Z,21.9
2018-07-07T07:42:21.442Z,22.1
2018-07-07T07:43:21.258Z,22.1
2018-07-07T07:44:21.233Z,22.2
2018-07-07T07:45:31.389Z,22.2
2018-07-07T07:46:21.364Z,22.2
2018-07-07T07:47:21.172Z,22.5
2018-07-07T07:48:21.394Z,22.5
2018-07-07T07:49:21.304Z,22.5
2018-07-07T07:50:22.719Z,22.6
2018-07-07T07:51:21.739Z,22.6
2018-07-07T07:52:21.909Z,22.8
2018-07-07T07:53:21.883Z,22.8
2018-07-07T07:54:21.567Z,22.8
2018-07-07T07:55:21.426Z,22.8
2018-07-07T07:56:21.418Z,22.8
2018-07-07T07:57:21.385Z,23.0
2018-07-07T07:58:21.482Z,23.0
2018-07-07T07:59:21.647Z,23.0
2018-07-07T08:00:21.856Z,23.0
2018-07-07T08:01:24.696Z,23.0
2018-07-07T08:02:21.656Z,22.8
2018-07-07T08:03:22.105Z,22.8
2018-07-07T08:04:21.459Z,22.8
2018-07-07T08:05:21.596Z,23.0
2018-07-07T08:06:21.921Z,23.0
2018-07-07T08:07:21.445Z,22.5
2018-07-07T08:08:21.579Z,22.5
2018-07-07T08:09:22.123Z,22.5
2018-07-07T08:10:21.492Z,22.5
2018-07-07T08:11:21.515Z,22.5
2018-07-07T08:12:21.652Z,22.5
2018-07-07T08:14:21.707Z,22.5
2018-07-07T08:15:21.858Z,21.6
2018-07-07T08:16:21.668Z,21.6
2018-07-07T08:17:22.491Z,21.6
2018-07-07T08:18:21.609Z,21.6
2018-07-07T08:19:22.140Z,21.6
2018-07-07T08:20:21.510Z,21.8
2018-07-07T08:21:21.532Z,21.8
2018-07-07T08:22:21.374Z,21.8
2018-07-07T08:23:21.329Z,20.9
2018-07-07T08:24:22.303Z,20.9
2018-07-07T08:25:22.539Z,20.7
2018-07-07T08:26:21.647Z,20.7
2018-07-07T08:27:21.472Z,20.7
2018-07-07T08:28:21.823Z,21.0
2018-07-07T08:29:21.496Z,21.0
2018-07-07T08:30:21.735Z,21.0
2018-07-07T08:31:21.610Z,21.0
2018-07-07T08:32:21.519Z,21.0
2018-07-07T08:33:21.699Z,20.8
2018-07-07T08:34:21.674Z,20.8
2018-07-07T08:35:22.074Z,20.4
2018-07-07T08:36:21.777Z,20.4
2018-07-07T08:37:21.553Z,20.4
2018-07-07T08:38:22.222Z,20.3
2018-07-07T08:39:21.551Z,20.3
2018-07-07T08:40:22.995Z,20.5
2018-07-07T08:41:26.443Z,20.5
2018-07-07T08:42:22.561Z,20.5
2018-07-07T08:43:22.789Z,20.8
2018-07-07T08:44:22.430Z,20.8
2018-07-07T08:45:23.137Z,21.4
2018-07-07T08:46:22.576Z,21.4
2018-07-07T08:48:22.648Z,21.9
2018-07-07T08:49:23.814Z,21.9
2018-07-07T08:50:31.823Z,21.9
2018-07-07T08:51:22.370Z,22.4
2018-07-07T08:52:22.159Z,22.4
2018-07-07T08:53:21.579Z,22.4
2018-07-07T08:54:21.748Z,22.4
2018-07-07T08:55:24.298Z,22.4
2018-07-07T08:56:21.515Z,22.2
2018-07-07T08:57:21.638Z,22.2
2018-07-07T08:58:21.589Z,22.0
2018-07-07T08:59:21.540Z,22.0
2018-07-07T09:00:21.474Z,22.0
2018-07-07T09:01:21.590Z,21.7
2018-07-07T09:02:21.494Z,21.7
2018-07-07T09:03:21.497Z,21.6
2018-07-07T09:04:26.446Z,21.6
2018-07-07T09:05:26.217Z,21.6
2018-07-07T09:06:26.967Z,21.2
2018-07-07T09:07:22.313Z,21.2
2018-07-07T09:09:23.041Z,21.0
2018-07-07T09:10:26.593Z,21.0
2018-07-07T09:11:23.323Z,21.1
2018-07-07T09:12:22.267Z,21.1
2018-07-07T09:13:21.774Z,21.0
2018-07-07T09:14:24.228Z,21.0
2018-07-07T09:15:23.590Z,21.0
2018-07-07T09:17:23.553Z,20.9
2018-07-07T09:18:25.654Z,20.9
2018-07-07T09:19:26.550Z,21.1
2018-07-07T09:20:22.499Z,21.1
2018-07-07T09:21:21.689Z,21.0
2018-07-07T09:22:21.657Z,21.0
2018-07-07T09:23:22.894Z,21.0
2018-07-07T09:24:21.541Z,21.2
2018-07-07T09:25:21.555Z,21.2
2018-07-07T09:26:21.514Z,21.0
2018-07-07T09:27:21.471Z,21.0
2018-07-07T09:28:21.998Z,21.0
2018-07-07T09:29:21.499Z,21.4
2018-07-07T09:30:21.430Z,21.4
2018-07-07T09:31:21.481Z,21.7
2018-07-07T09:32:22.195Z,21.7
2018-07-07T09:33:23.450Z,21.7
2018-07-07T09:34:21.763Z,21.7
2018-07-07T09:35:21.783Z,21.7
2018-07-07T09:36:21.664Z,20.9
2018-07-07T09:37:21.591Z,20.9
2018-07-07T09:38:21.561Z,20.9
2018-07-07T09:39:21.602Z,21.2
2018-07-07T09:40:21.501Z,21.2
2018-07-07T09:41:21.469Z,21.7
2018-07-07T09:42:21.657Z,21.7
2018-07-07T09:43:21.597Z,21.7
2018-07-07T09:44:21.663Z,22.4
2018-07-07T09:45:21.640Z,22.4
2018-07-07T09:46:21.731Z,21.8
2018-07-07T09:47:21.710Z,21.8
2018-07-07T09:48:21.682Z,21.8
2018-07-07T09:49:21.501Z,21.3
2018-07-07T09:50:21.595Z,21.3
2018-07-07T09:51:21.545Z,21.3
2018-07-07T09:52:21.785Z,21.6
2018-07-07T09:53:21.601Z,21.6
2018-07-07T09:54:21.511Z,20.9
2018-07-07T09:55:21.670Z,20.9
2018-07-07T09:56:22.294Z,20.9
2018-07-07T09:57:21.671Z,21.1
2018-07-07T09:58:21.659Z,21.1
2018-07-07T09:59:21.527Z,21.3
2018-07-07T10:00:21.609Z,21.3
2018-07-07T10:01:21.858Z,21.3
2018-07-07T10:02:21.662Z,21.9
2018-07-07T10:03:21.530Z,21.9
2018-07-07T10:04:21.568Z,22.2
2018-07-07T10:05:21.548Z,22.2
2018-07-07T10:06:21.667Z,22.2
2018-07-07T10:07:21.661Z,22.0
2018-07-07T10:08:21.524Z,22.0
2018-07-07T10:09:21.469Z,22.5
2018-07-07T10:10:21.619Z,22.5
2018-07-07T10:11:21.615Z,22.5
2018-07-07T10:12:21.753Z,22.1
2018-07-07T10:13:21.702Z,22.1
2018-07-07T10:14:22.151Z,22.1
2018-07-07T10:15:21.564Z,22.1
2018-07-07T10:16:21.665Z,22.1
2018-07-07T10:17:21.618Z,22.2
2018-07-07T10:18:21.515Z,22.2
2018-07-07T10:19:22.186Z,22.2
2018-07-07T10:20:21.702Z,22.3
2018-07-07T10:21:21.523Z,22.3
2018-07-07T10:22:22.202Z,22.4
2018-07-07T10:23:21.719Z,22.4
2018-07-07T10:24:21.684Z,22.4
2018-07-07T10:25:21.640Z,22.4
2018-07-07T10:26:22.426Z,22.4
2018-07-07T10:27:21.689Z,21.3
2018-07-07T10:28:21.607Z,21.3
2018-07-07T10:29:21.805Z,21.3
2018-07-07T10:30:21.694Z,21.2
2018-07-07T10:31:21.642Z,21.2
2018-07-07T10:32:22.253Z,21.7
2018-07-07T10:33:21.563Z,21.7
2018-07-07T10:34:21.698Z,21.7
2018-07-07T10:35:21.722Z,22.0
2018-07-07T10:36:21.657Z,22.0
2018-07-07T10:37:21.638Z,22.1
2018-07-07T10:38:21.746Z,22.1
2018-07-07T10:39:23.341Z,22.1
2018-07-07T10:40:21.800Z,22.2
2018-07-07T10:41:21.505Z,22.2
2018-07-07T10:42:21.553Z,22.3
2018-07-07T10:43:21.600Z,22.3
2018-07-07T10:44:21.484Z,22.3
2018-07-07T10:45:21.482Z,22.4
2018-07-07T10:46:21.527Z,22.4
2018-07-07T10:47:21.778Z,22.9
2018-07-07T10:48:21.543Z,22.9
2018-07-07T10:49:21.551Z,22.9
2018-07-07T10:50:21.583Z,22.8
2018-07-07T10:51:21.499Z,22.8
2018-07-07T10:52:21.493Z,22.8
2018-07-07T10:53:21.561Z,22.4
2018-07-07T10:54:21.558Z,22.4
2018-07-07T10:55:21.598Z,22.4
2018-07-07T10:56:21.574Z,22.4
2018-07-07T10:57:21.561Z,22.4
2018-07-07T10:58:22.283Z,22.0
2018-07-07T10:59:23.730Z,22.0
2018-07-07T11:00:22.961Z,22.1
2018-07-07T11:02:23.463Z,22.1
2018-07-07T11:03:21.949Z,22.0
2018-07-07T11:04:22.053Z,22.0
2018-07-07T11:05:21.514Z,22.7
2018-07-07T11:06:21.582Z,22.7
2018-07-07T11:08:23.441Z,22.9
2018-07-07T11:10:22.912Z,22.4
2018-07-07T11:11:22.061Z,22.4
2018-07-07T11:12:22.868Z,22.4
2018-07-07T11:13:23.393Z,22.3
2018-07-07T11:14:22.381Z,22.3
2018-07-07T11:15:22.317Z,22.6
2018-07-07T11:16:22.475Z,22.6
2018-07-07T11:17:22.078Z,22.6
2018-07-07T11:18:22.531Z,22.8
2018-07-07T11:19:22.027Z,22.8
2018-07-07T11:20:23.618Z,22.8
2018-07-07T11:21:22.640Z,23.0
2018-07-07T11:22:21.537Z,23.0
2018-07-07T11:23:22.773Z,23.2
2018-07-07T11:24:22.057Z,23.2
2018-07-07T11:25:22.321Z,23.2
2018-07-07T11:26:22.081Z,23.5
2018-07-07T11:28:22.286Z,23.7
2018-07-07T11:29:21.580Z,23.7
2018-07-07T11:30:21.620Z,23.7
2018-07-07T11:31:24.581Z,23.8
2018-07-07T11:32:23.773Z,23.8
2018-07-07T11:33:23.498Z,23.1
2018-07-07T11:34:23.144Z,23.1
2018-07-07T11:35:22.742Z,23.1
2018-07-07T11:36:21.687Z,23.1
2018-07-07T11:37:21.645Z,23.1
2018-07-07T11:38:21.621Z,22.8
2018-07-07T11:39:21.743Z,22.8
2018-07-07T11:41:22.105Z,22.6
2018-07-07T11:42:22.845Z,22.6
2018-07-07T11:43:24.049Z,22.6
2018-07-07T11:44:22.763Z,22.6
2018-07-07T11:45:22.890Z,22.6
2018-07-07T11:46:24.390Z,22.3
2018-07-07T11:47:22.952Z,22.3
2018-07-07T11:48:22.674Z,22.4
2018-07-07T11:49:23.594Z,22.4
2018-07-07T11:50:24.191Z,22.4
2018-07-07T11:51:22.956Z,23.2
2018-07-07T11:52:22.753Z,23.2
2018-07-07T11:53:23.273Z,23.2
2018-07-07T11:54:22.320Z,23.6
2018-07-07T11:55:23.125Z,23.6
2018-07-07T11:56:21.689Z,23.7
2018-07-07T11:57:21.677Z,23.7
2018-07-07T11:58:21.584Z,23.7
2018-07-07T11:59:21.632Z,23.6
2018-07-07T12:00:21.743Z,23.6
2018-07-07T12:01:21.682Z,23.2
2018-07-07T12:02:21.828Z,23.2
2018-07-07T12:03:21.701Z,23.2
2018-07-07T12:04:21.654Z,23.3
2018-07-07T12:05:21.645Z,23.3
2018-07-07T12:06:21.773Z,23.4
2018-07-07T12:07:21.633Z,23.4
2018-07-07T12:08:21.945Z,23.4
2018-07-07T12:09:21.731Z,23.9
2018-07-07T12:10:21.701Z,23.9
2018-07-07T12:11:21.733Z,24.0
2018-07-07T12:12:21.767Z,24.0
2018-07-07T12:13:22.302Z,24.0
2018-07-07T12:14:21.637Z,23.9
2018-07-07T12:15:21.768Z,23.9
2018-07-07T12:16:21.865Z,23.9
2018-07-07T12:17:21.779Z,23.9
2018-07-07T12:18:21.765Z,23.9
2018-07-07T12:19:21.773Z,24.0
2018-07-07T12:20:21.818Z,24.0
2018-07-07T12:21:21.859Z,24.0
2018-07-07T12:22:22.424Z,24.4
2018-07-07T12:23:21.695Z,24.4
2018-07-07T12:24:21.731Z,23.7
2018-07-07T12:25:21.724Z,23.7
2018-07-07T12:26:21.798Z,23.7
2018-07-07T12:27:21.756Z,23.1
2018-07-07T12:28:21.789Z,23.1
2018-07-07T12:29:21.818Z,23.0
2018-07-07T12:30:21.685Z,23.0
2018-07-07T12:31:21.749Z,23.0
2018-07-07T12:32:21.799Z,23.7
2018-07-07T12:33:21.719Z,23.7
2018-07-07T12:34:21.826Z,23.7
2018-07-07T12:35:21.788Z,23.7
2018-07-07T12:36:21.801Z,23.7
2018-07-07T12:37:21.779Z,23.9
2018-07-07T12:38:21.810Z,23.9
2018-07-07T12:39:21.748Z,24.0
2018-07-07T12:40:21.788Z,24.0
2018-07-07T12:41:21.854Z,24.0
2018-07-07T12:42:21.745Z,24.7
2018-07-07T12:43:21.687Z,24.7
2018-07-07T12:44:21.828Z,25.1
2018-07-07T12:45:21.819Z,25.1
2018-07-07T12:46:21.872Z,25.1
2018-07-07T12:47:21.753Z,25.2
2018-07-07T12:48:21.851Z,25.2
2018-07-07T12:51:02.627Z,25.2
2018-07-07T12:51:12.550Z,25.2
2018-07-07T12:52:12.604Z,24.6
2018-07-07T12:53:12.612Z,24.6
2018-07-07T12:54:12.653Z,24.6
2018-07-07T12:55:12.622Z,24.0
2018-07-07T12:56:12.536Z,24.0
2018-07-07T12:57:12.654Z,24.0
2018-07-07T12:58:12.632Z,24.0
2018-07-07T12:59:12.518Z,24.0
2018-07-07T13:01:25.125Z,23.3
2018-07-07T13:02:25.100Z,23.4
2018-07-07T13:03:25.005Z,23.4
2018-07-07T13:04:25.108Z,23.4
2018-07-07T13:05:25.133Z,23.8
2018-07-07T13:06:25.251Z,23.8
2018-07-07T13:07:25.171Z,23.8
2018-07-07T13:08:25.150Z,23.8
2018-07-07T13:09:25.151Z,23.8
2018-07-07T13:10:25.123Z,23.5
2018-07-07T13:11:25.701Z,23.5
2018-07-07T13:12:25.092Z,23.2
2018-07-07T13:13:25.034Z,23.2
2018-07-07T13:14:25.112Z,23.2
2018-07-07T13:15:25.096Z,23.1
2018-07-07T13:16:25.061Z,23.1
2018-07-07T13:17:25.652Z,23.3
2018-07-07T13:18:25.062Z,23.3
2018-07-07T13:19:25.072Z,23.3
2018-07-07T13:20:25.077Z,23.5
2018-07-07T13:21:25.751Z,23.5
2018-07-07T13:22:25.125Z,24.0
2018-07-07T13:23:25.157Z,24.0
2018-07-07T13:24:25.122Z,24.0
2018-07-07T13:25:25.073Z,24.0
2018-07-07T13:26:25.094Z,24.0
2018-07-07T13:27:25.094Z,24.0
2018-07-07T13:28:25.137Z,24.0
2018-07-07T13:29:25.165Z,24.0
2018-07-07T13:30:25.266Z,24.2
2018-07-07T13:31:25.254Z,24.2
2018-07-07T13:32:25.220Z,24.2
2018-07-07T13:33:25.482Z,24.7
2018-07-07T13:34:25.210Z,24.7
2018-07-07T13:35:25.284Z,24.6
2018-07-07T13:36:25.189Z,24.6
2018-07-07T13:37:25.241Z,24.6
2018-07-07T13:38:25.190Z,24.6
2018-07-07T13:39:25.187Z,24.6
2018-07-07T13:40:25.279Z,24.8
2018-07-07T13:41:25.179Z,24.8
2018-07-07T13:42:25.153Z,24.8
2018-07-07T13:43:25.160Z,24.6
2018-07-07T13:44:25.284Z,24.6
2018-07-07T13:45:25.243Z,24.9
2018-07-07T13:46:25.145Z,24.9
2018-07-07T13:47:25.204Z,24.9
2018-07-07T13:48:25.187Z,25.0
2018-07-07T13:49:25.183Z,25.0
2018-07-07T13:50:25.164Z,25.0
2018-07-07T13:51:25.316Z,25.0
2018-07-07T13:52:25.127Z,25.0
2018-07-07T13:53:25.168Z,25.0
2018-07-07T13:54:25.197Z,25.0
2018-07-07T13:55:25.244Z,25.0
2018-07-07T13:56:25.187Z,24.7
2018-07-07T13:57:25.183Z,24.7
2018-07-07T13:58:25.270Z,24.7
2018-07-07T13:59:25.130Z,24.7
2018-07-07T14:00:25.749Z,24.7
2018-07-07T14:01:25.390Z,24.8
2018-07-07T14:02:25.287Z,24.8
2018-07-07T14:03:25.206Z,24.3